sensor_id;sensor_type;location;lat;lon;timestamp;P1;durP1;ratioP1;P2;durP2;ratioP2
29120;SDS011;16191;49.548;8.658;2024-03-06T00:02:20;11.93;;;5.18;;
29120;SDS011;16191;49.548;8.658;2024-03-06T00:04:48;12.25;;;5.53;;
29120;SDS011;16191;49.548;8.658;2024-03-06T00:07:14;11.80;;;4.85;;
29120;SDS011;16191;49.548;8.658;2024-03-06T00:09:41;12.65;;;4.60;;
29120;SDS011;16191;49.548;8.658;2024-03-06T00:12:08;11.02;;;4.93;;
29120;SDS011;16191;49.548;8.658;2024-03-06T00:14:35;6.40;;;4.10;;
29120;SDS011;16191;49.548;8.658;2024-03-06T00:17:02;8.65;;;4.57;;
29120;SDS011;16191;49.548;8.658;2024-03-06T00:19:31;9.30;;;5.13;;
29120;SDS011;16191;49.548;8.658;2024-03-06T00:21:59;9.60;;;4.50;;
29120;SDS011;16191;49.548;8.658;2024-03-06T00:24:26;8.85;;;4.80;;
29120;SDS011;16191;49.548;8.658;2024-03-06T00:26:52;9.43;;;4.32;;
29120;SDS011;16191;49.548;8.658;2024-03-06T00:29:19;13.75;;;4.35;;
29120;SDS011;16191;49.548;8.658;2024-03-06T00:31:46;8.60;;;4.18;;
29120;SDS011;16191;49.548;8.658;2024-03-06T00:34:13;10.10;;;4.78;;
29120;SDS011;16191;49.548;8.658;2024-03-06T00:36:40;8.65;;;4.90;;
29120;SDS011;16191;49.548;8.658;2024-03-06T00:39:07;9.85;;;4.80;;
29120;SDS011;16191;49.548;8.658;2024-03-06T00:41:34;11.90;;;4.97;;
29120;SDS011;16191;49.548;8.658;2024-03-06T00:44:02;6.25;;;4.25;;
29120;SDS011;16191;49.548;8.658;2024-03-06T00:46:29;9.40;;;4.63;;
29120;SDS011;16191;49.548;8.658;2024-03-06T00:48:56;11.02;;;4.60;;
29120;SDS011;16191;49.548;8.658;2024-03-06T00:51:23;9.35;;;5.20;;
29120;SDS011;16191;49.548;8.658;2024-03-06T00:54:06;14.50;;;5.40;;
29120;SDS011;16191;49.548;8.658;2024-03-06T00:56:33;10.15;;;4.78;;
29120;SDS011;16191;49.548;8.658;2024-03-06T00:59:03;8.70;;;5.07;;
29120;SDS011;16191;49.548;8.658;2024-03-06T01:01:30;14.38;;;4.70;;
29120;SDS011;16191;49.548;8.658;2024-03-06T01:03:57;13.55;;;5.07;;
29120;SDS011;16191;49.548;8.658;2024-03-06T01:06:24;11.48;;;5.63;;
29120;SDS011;16191;49.548;8.658;2024-03-06T01:08:51;9.20;;;4.28;;
29120;SDS011;16191;49.548;8.658;2024-03-06T01:11:17;10.07;;;4.60;;
29120;SDS011;16191;49.548;8.658;2024-03-06T01:13:44;9.13;;;5.13;;
29120;SDS011;16191;49.548;8.658;2024-03-06T01:16:11;10.10;;;5.00;;
29120;SDS011;16191;49.548;8.658;2024-03-06T01:18:37;9.60;;;4.72;;
29120;SDS011;16191;49.548;8.658;2024-03-06T01:21:04;8.68;;;4.80;;
29120;SDS011;16191;49.548;8.658;2024-03-06T01:23:31;10.55;;;5.25;;
29120;SDS011;16191;49.548;8.658;2024-03-06T01:25:57;10.20;;;4.47;;
29120;SDS011;16191;49.548;8.658;2024-03-06T01:28:24;9.77;;;4.93;;
29120;SDS011;16191;49.548;8.658;2024-03-06T01:30:51;9.38;;;4.72;;
29120;SDS011;16191;49.548;8.658;2024-03-06T01:33:18;9.70;;;5.13;;
29120;SDS011;16191;49.548;8.658;2024-03-06T01:35:45;9.35;;;4.68;;
29120;SDS011;16191;49.548;8.658;2024-03-06T01:38:11;11.40;;;5.03;;
29120;SDS011;16191;49.548;8.658;2024-03-06T01:40:42;11.05;;;5.38;;
29120;SDS011;16191;49.548;8.658;2024-03-06T01:43:23;10.23;;;5.10;;
29120;SDS011;16191;49.548;8.658;2024-03-06T01:45:51;9.63;;;4.95;;
29120;SDS011;16191;49.548;8.658;2024-03-06T01:48:23;9.02;;;4.68;;
29120;SDS011;16191;49.548;8.658;2024-03-06T01:50:53;11.02;;;5.28;;
29120;SDS011;16191;49.548;8.658;2024-03-06T01:55:51;9.02;;;4.75;;
29120;SDS011;16191;49.548;8.658;2024-03-06T01:58:18;11.52;;;5.13;;
29120;SDS011;16191;49.548;8.658;2024-03-06T02:00:48;10.23;;;5.07;;
29120;SDS011;16191;49.548;8.658;2024-03-06T02:03:16;10.57;;;5.50;;
29120;SDS011;16191;49.548;8.658;2024-03-06T02:05:48;12.27;;;5.82;;
29120;SDS011;16191;49.548;8.658;2024-03-06T02:08:15;12.47;;;5.87;;
29120;SDS011;16191;49.548;8.658;2024-03-06T02:10:43;12.27;;;6.38;;
29120;SDS011;16191;49.548;8.658;2024-03-06T02:13:12;10.20;;;6.25;;
29120;SDS011;16191;49.548;8.658;2024-03-06T02:15:40;11.18;;;5.68;;
29120;SDS011;16191;49.548;8.658;2024-03-06T02:18:07;14.00;;;5.53;;
29120;SDS011;16191;49.548;8.658;2024-03-06T02:20:37;13.70;;;5.32;;
29120;SDS011;16191;49.548;8.658;2024-03-06T02:23:05;10.75;;;5.38;;
29120;SDS011;16191;49.548;8.658;2024-03-06T02:25:33;14.93;;;6.03;;
29120;SDS011;16191;49.548;8.658;2024-03-06T02:27:59;11.02;;;5.03;;
29120;SDS011;16191;49.548;8.658;2024-03-06T02:30:26;10.85;;;4.95;;
29120;SDS011;16191;49.548;8.658;2024-03-06T02:32:53;11.95;;;5.30;;
29120;SDS011;16191;49.548;8.658;2024-03-06T02:35:20;8.63;;;5.05;;
29120;SDS011;16191;49.548;8.658;2024-03-06T02:38:07;11.07;;;5.65;;
29120;SDS011;16191;49.548;8.658;2024-03-06T02:40:54;10.75;;;5.00;;
29120;SDS011;16191;49.548;8.658;2024-03-06T02:43:41;9.32;;;4.75;;
29120;SDS011;16191;49.548;8.658;2024-03-06T02:46:28;15.13;;;4.97;;
29120;SDS011;16191;49.548;8.658;2024-03-06T02:49:15;10.82;;;5.38;;
29120;SDS011;16191;49.548;8.658;2024-03-06T02:52:03;9.60;;;5.45;;
29120;SDS011;16191;49.548;8.658;2024-03-06T02:54:30;14.15;;;5.15;;
29120;SDS011;16191;49.548;8.658;2024-03-06T02:56:57;12.18;;;5.50;;
29120;SDS011;16191;49.548;8.658;2024-03-06T02:59:23;9.90;;;5.05;;
29120;SDS011;16191;49.548;8.658;2024-03-06T03:01:50;9.13;;;5.10;;
29120;SDS011;16191;49.548;8.658;2024-03-06T03:04:18;10.63;;;5.03;;
29120;SDS011;16191;49.548;8.658;2024-03-06T03:06:45;9.57;;;5.00;;
29120;SDS011;16191;49.548;8.658;2024-03-06T03:09:11;12.57;;;5.13;;
29120;SDS011;16191;49.548;8.658;2024-03-06T03:11:38;11.77;;;5.05;;
29120;SDS011;16191;49.548;8.658;2024-03-06T03:14:05;14.98;;;5.38;;
29120;SDS011;16191;49.548;8.658;2024-03-06T03:16:33;10.63;;;5.55;;
29120;SDS011;16191;49.548;8.658;2024-03-06T03:19:00;11.18;;;5.03;;
29120;SDS011;16191;49.548;8.658;2024-03-06T03:21:27;12.45;;;5.20;;
29120;SDS011;16191;49.548;8.658;2024-03-06T03:23:54;11.90;;;5.68;;
29120;SDS011;16191;49.548;8.658;2024-03-06T03:26:21;12.43;;;5.07;;
29120;SDS011;16191;49.548;8.658;2024-03-06T03:28:48;11.98;;;5.10;;
29120;SDS011;16191;49.548;8.658;2024-03-06T03:31:14;13.00;;;5.75;;
29120;SDS011;16191;49.548;8.658;2024-03-06T03:33:41;11.45;;;5.70;;
29120;SDS011;16191;49.548;8.658;2024-03-06T03:36:09;13.75;;;5.68;;
29120;SDS011;16191;49.548;8.658;2024-03-06T03:38:38;13.68;;;6.28;;
29120;SDS011;16191;49.548;8.658;2024-03-06T03:41:11;9.68;;;5.55;;
29120;SDS011;16191;49.548;8.658;2024-03-06T03:43:40;10.27;;;6.00;;
29120;SDS011;16191;49.548;8.658;2024-03-06T03:46:08;15.40;;;7.25;;
29120;SDS011;16191;49.548;8.658;2024-03-06T03:48:35;12.65;;;7.05;;
29120;SDS011;16191;49.548;8.658;2024-03-06T03:51:03;11.50;;;6.20;;
29120;SDS011;16191;49.548;8.658;2024-03-06T03:53:31;11.88;;;6.68;;
29120;SDS011;16191;49.548;8.658;2024-03-06T03:55:58;12.13;;;6.88;;
29120;SDS011;16191;49.548;8.658;2024-03-06T03:58:25;10.25;;;6.22;;
29120;SDS011;16191;49.548;8.658;2024-03-06T04:00:52;14.20;;;6.25;;
29120;SDS011;16191;49.548;8.658;2024-03-06T04:03:19;12.27;;;5.85;;
29120;SDS011;16191;49.548;8.658;2024-03-06T04:05:47;12.60;;;6.72;;
29120;SDS011;16191;49.548;8.658;2024-03-06T04:08:14;12.23;;;5.90;;
29120;SDS011;16191;49.548;8.658;2024-03-06T04:10:42;15.32;;;6.10;;
29120;SDS011;16191;49.548;8.658;2024-03-06T04:13:11;10.27;;;5.85;;
29120;SDS011;16191;49.548;8.658;2024-03-06T04:15:39;11.95;;;6.13;;
29120;SDS011;16191;49.548;8.658;2024-03-06T04:18:06;9.63;;;6.05;;
29120;SDS011;16191;49.548;8.658;2024-03-06T04:20:33;12.43;;;5.93;;
29120;SDS011;16191;49.548;8.658;2024-03-06T04:23:00;9.77;;;5.85;;
29120;SDS011;16191;49.548;8.658;2024-03-06T04:25:27;12.55;;;6.43;;
29120;SDS011;16191;49.548;8.658;2024-03-06T04:27:54;11.05;;;6.53;;
29120;SDS011;16191;49.548;8.658;2024-03-06T04:30:20;11.23;;;6.72;;
29120;SDS011;16191;49.548;8.658;2024-03-06T04:32:47;12.27;;;6.82;;
29120;SDS011;16191;49.548;8.658;2024-03-06T04:35:15;12.52;;;6.82;;
29120;SDS011;16191;49.548;8.658;2024-03-06T04:37:42;12.02;;;6.55;;
29120;SDS011;16191;49.548;8.658;2024-03-06T04:40:11;14.20;;;6.63;;
29120;SDS011;16191;49.548;8.658;2024-03-06T04:42:38;12.20;;;6.40;;
29120;SDS011;16191;49.548;8.658;2024-03-06T04:45:10;12.13;;;6.05;;
29120;SDS011;16191;49.548;8.658;2024-03-06T04:47:38;12.00;;;6.53;;
29120;SDS011;16191;49.548;8.658;2024-03-06T04:50:08;11.95;;;6.55;;
29120;SDS011;16191;49.548;8.658;2024-03-06T04:52:40;12.65;;;6.20;;
29120;SDS011;16191;49.548;8.658;2024-03-06T04:55:07;11.38;;;6.38;;
29120;SDS011;16191;49.548;8.658;2024-03-06T04:57:36;10.13;;;6.10;;
29120;SDS011;16191;49.548;8.658;2024-03-06T05:00:04;11.43;;;7.00;;
29120;SDS011;16191;49.548;8.658;2024-03-06T05:02:35;16.75;;;7.30;;
29120;SDS011;16191;49.548;8.658;2024-03-06T05:05:20;11.98;;;6.05;;
29120;SDS011;16191;49.548;8.658;2024-03-06T05:08:05;11.32;;;6.15;;
29120;SDS011;16191;49.548;8.658;2024-03-06T05:10:51;13.13;;;6.50;;
29120;SDS011;16191;49.548;8.658;2024-03-06T05:13:35;11.15;;;6.05;;
29120;SDS011;16191;49.548;8.658;2024-03-06T05:16:19;14.48;;;6.47;;
29120;SDS011;16191;49.548;8.658;2024-03-06T05:19:06;13.57;;;6.78;;
29120;SDS011;16191;49.548;8.658;2024-03-06T05:21:50;12.93;;;7.07;;
29120;SDS011;16191;49.548;8.658;2024-03-06T05:24:35;16.65;;;6.82;;
29120;SDS011;16191;49.548;8.658;2024-03-06T05:27:20;14.75;;;7.18;;
29120;SDS011;16191;49.548;8.658;2024-03-06T05:30:05;13.10;;;8.35;;
29120;SDS011;16191;49.548;8.658;2024-03-06T05:32:50;12.18;;;8.48;;
29120;SDS011;16191;49.548;8.658;2024-03-06T05:35:34;14.20;;;9.55;;
29120;SDS011;16191;49.548;8.658;2024-03-06T05:38:18;12.90;;;9.38;;
29120;SDS011;16191;49.548;8.658;2024-03-06T05:41:03;12.85;;;9.18;;
29120;SDS011;16191;49.548;8.658;2024-03-06T05:43:47;17.05;;;8.90;;
29120;SDS011;16191;49.548;8.658;2024-03-06T05:46:31;16.17;;;9.48;;
29120;SDS011;16191;49.548;8.658;2024-03-06T05:49:16;12.68;;;8.43;;
29120;SDS011;16191;49.548;8.658;2024-03-06T05:52:00;15.35;;;8.82;;
29120;SDS011;16191;49.548;8.658;2024-03-06T05:54:45;15.55;;;8.90;;
29120;SDS011;16191;49.548;8.658;2024-03-06T05:57:29;10.85;;;7.72;;
29120;SDS011;16191;49.548;8.658;2024-03-06T06:00:13;17.33;;;8.40;;
29120;SDS011;16191;49.548;8.658;2024-03-06T06:02:40;12.40;;;8.23;;
29120;SDS011;16191;49.548;8.658;2024-03-06T06:05:07;17.17;;;8.43;;
29120;SDS011;16191;49.548;8.658;2024-03-06T06:07:49;12.85;;;7.90;;
29120;SDS011;16191;49.548;8.658;2024-03-06T06:10:17;12.18;;;8.43;;
29120;SDS011;16191;49.548;8.658;2024-03-06T06:12:47;15.20;;;10.13;;
29120;SDS011;16191;49.548;8.658;2024-03-06T06:15:15;14.38;;;9.98;;
29120;SDS011;16191;49.548;8.658;2024-03-06T06:17:42;14.52;;;9.32;;
29120;SDS011;16191;49.548;8.658;2024-03-06T06:20:12;17.13;;;9.50;;
29120;SDS011;16191;49.548;8.658;2024-03-06T06:22:43;14.18;;;9.73;;
29120;SDS011;16191;49.548;8.658;2024-03-06T06:25:10;13.68;;;9.82;;
29120;SDS011;16191;49.548;8.658;2024-03-06T06:27:38;13.25;;;8.95;;
29120;SDS011;16191;49.548;8.658;2024-03-06T06:30:05;12.15;;;7.90;;
29120;SDS011;16191;49.548;8.658;2024-03-06T06:32:37;13.00;;;8.10;;
29120;SDS011;16191;49.548;8.658;2024-03-06T06:35:04;16.88;;;9.63;;
29120;SDS011;16191;49.548;8.658;2024-03-06T06:37:32;15.27;;;10.02;;
29120;SDS011;16191;49.548;8.658;2024-03-06T06:39:59;19.70;;;9.63;;
29120;SDS011;16191;49.548;8.658;2024-03-06T06:42:26;16.95;;;8.45;;
29120;SDS011;16191;49.548;8.658;2024-03-06T06:44:53;14.15;;;8.32;;
29120;SDS011;16191;49.548;8.658;2024-03-06T06:47:19;12.77;;;8.20;;
29120;SDS011;16191;49.548;8.658;2024-03-06T06:49:46;12.88;;;8.40;;
29120;SDS011;16191;49.548;8.658;2024-03-06T06:52:13;12.90;;;7.63;;
29120;SDS011;16191;49.548;8.658;2024-03-06T06:54:40;18.13;;;8.73;;
29120;SDS011;16191;49.548;8.658;2024-03-06T06:57:07;11.10;;;6.95;;
29120;SDS011;16191;49.548;8.658;2024-03-06T06:59:34;15.65;;;8.35;;
29120;SDS011;16191;49.548;8.658;2024-03-06T07:02:02;17.15;;;8.18;;
29120;SDS011;16191;49.548;8.658;2024-03-06T07:04:29;15.32;;;8.25;;
29120;SDS011;16191;49.548;8.658;2024-03-06T07:06:56;15.32;;;9.20;;
29120;SDS011;16191;49.548;8.658;2024-03-06T07:09:23;17.20;;;8.02;;
29120;SDS011;16191;49.548;8.658;2024-03-06T07:11:51;12.93;;;8.30;;
29120;SDS011;16191;49.548;8.658;2024-03-06T07:14:18;18.13;;;8.00;;
29120;SDS011;16191;49.548;8.658;2024-03-06T07:16:45;13.52;;;8.43;;
29120;SDS011;16191;49.548;8.658;2024-03-06T07:19:12;12.73;;;7.60;;
29120;SDS011;16191;49.548;8.658;2024-03-06T07:21:39;14.38;;;8.15;;
29120;SDS011;16191;49.548;8.658;2024-03-06T07:24:06;12.80;;;7.63;;
29120;SDS011;16191;49.548;8.658;2024-03-06T07:26:33;14.70;;;8.23;;
29120;SDS011;16191;49.548;8.658;2024-03-06T07:29:01;16.33;;;8.25;;
29120;SDS011;16191;49.548;8.658;2024-03-06T07:31:28;12.35;;;7.75;;
29120;SDS011;16191;49.548;8.658;2024-03-06T07:33:55;18.83;;;8.73;;
29120;SDS011;16191;49.548;8.658;2024-03-06T07:36:22;13.10;;;8.07;;
29120;SDS011;16191;49.548;8.658;2024-03-06T07:38:49;13.98;;;8.35;;
29120;SDS011;16191;49.548;8.658;2024-03-06T07:41:15;15.20;;;8.10;;
29120;SDS011;16191;49.548;8.658;2024-03-06T07:43:42;13.80;;;8.98;;
29120;SDS011;16191;49.548;8.658;2024-03-06T07:46:09;13.95;;;7.68;;
29120;SDS011;16191;49.548;8.658;2024-03-06T07:48:37;15.63;;;8.77;;
29120;SDS011;16191;49.548;8.658;2024-03-06T07:51:04;12.90;;;8.07;;
29120;SDS011;16191;49.548;8.658;2024-03-06T07:53:31;16.52;;;8.10;;
29120;SDS011;16191;49.548;8.658;2024-03-06T07:55:58;15.48;;;9.02;;
29120;SDS011;16191;49.548;8.658;2024-03-06T07:58:25;17.23;;;9.27;;
29120;SDS011;16191;49.548;8.658;2024-03-06T08:00:52;17.10;;;8.98;;
29120;SDS011;16191;49.548;8.658;2024-03-06T08:03:23;12.02;;;7.70;;
29120;SDS011;16191;49.548;8.658;2024-03-06T08:05:51;13.43;;;8.35;;
29120;SDS011;16191;49.548;8.658;2024-03-06T08:08:21;14.65;;;8.73;;
29120;SDS011;16191;49.548;8.658;2024-03-06T08:10:48;16.80;;;8.85;;
29120;SDS011;16191;49.548;8.658;2024-03-06T08:13:15;16.88;;;8.85;;
29120;SDS011;16191;49.548;8.658;2024-03-06T08:15:42;16.02;;;9.07;;
29120;SDS011;16191;49.548;8.658;2024-03-06T08:18:11;17.83;;;9.67;;
29120;SDS011;16191;49.548;8.658;2024-03-06T08:20:40;15.98;;;8.50;;
29120;SDS011;16191;49.548;8.658;2024-03-06T08:23:07;16.88;;;9.07;;
29120;SDS011;16191;49.548;8.658;2024-03-06T08:25:36;16.85;;;9.05;;
29120;SDS011;16191;49.548;8.658;2024-03-06T08:28:03;13.75;;;8.85;;
29120;SDS011;16191;49.548;8.658;2024-03-06T08:30:31;13.95;;;9.70;;
29120;SDS011;16191;49.548;8.658;2024-03-06T08:32:59;15.75;;;9.35;;
29120;SDS011;16191;49.548;8.658;2024-03-06T08:35:26;12.80;;;8.90;;
29120;SDS011;16191;49.548;8.658;2024-03-06T08:37:53;14.85;;;8.18;;
29120;SDS011;16191;49.548;8.658;2024-03-06T08:40:20;14.93;;;7.95;;
29120;SDS011;16191;49.548;8.658;2024-03-06T08:42:47;15.23;;;7.43;;
29120;SDS011;16191;49.548;8.658;2024-03-06T08:45:15;14.77;;;7.68;;
29120;SDS011;16191;49.548;8.658;2024-03-06T08:47:45;13.40;;;7.80;;
29120;SDS011;16191;49.548;8.658;2024-03-06T08:50:13;11.75;;;7.40;;
29120;SDS011;16191;49.548;8.658;2024-03-06T08:52:40;11.57;;;6.90;;
29120;SDS011;16191;49.548;8.658;2024-03-06T08:55:08;12.88;;;7.78;;
29120;SDS011;16191;49.548;8.658;2024-03-06T08:57:35;10.80;;;7.22;;
29120;SDS011;16191;49.548;8.658;2024-03-06T09:00:03;11.30;;;7.38;;
29120;SDS011;16191;49.548;8.658;2024-03-06T09:02:30;13.23;;;7.75;;
29120;SDS011;16191;49.548;8.658;2024-03-06T09:04:57;12.65;;;7.88;;
29120;SDS011;16191;49.548;8.658;2024-03-06T09:07:24;13.07;;;7.68;;
29120;SDS011;16191;49.548;8.658;2024-03-06T09:09:51;13.75;;;7.30;;
29120;SDS011;16191;49.548;8.658;2024-03-06T09:12:18;9.88;;;6.60;;
29120;SDS011;16191;49.548;8.658;2024-03-06T09:14:45;11.25;;;7.68;;
29120;SDS011;16191;49.548;8.658;2024-03-06T09:17:12;10.85;;;6.28;;
29120;SDS011;16191;49.548;8.658;2024-03-06T09:19:42;9.40;;;6.30;;
29120;SDS011;16191;49.548;8.658;2024-03-06T09:22:28;12.40;;;6.88;;
29120;SDS011;16191;49.548;8.658;2024-03-06T09:24:55;9.77;;;6.95;;
29120;SDS011;16191;49.548;8.658;2024-03-06T09:27:23;12.43;;;7.10;;
29120;SDS011;16191;49.548;8.658;2024-03-06T09:29:49;12.30;;;6.72;;
29120;SDS011;16191;49.548;8.658;2024-03-06T09:32:16;10.70;;;7.18;;
29120;SDS011;16191;49.548;8.658;2024-03-06T09:34:45;11.80;;;7.07;;
29120;SDS011;16191;49.548;8.658;2024-03-06T09:37:12;12.65;;;7.28;;
29120;SDS011;16191;49.548;8.658;2024-03-06T09:39:39;10.40;;;7.20;;
29120;SDS011;16191;49.548;8.658;2024-03-06T09:42:05;13.60;;;6.60;;
29120;SDS011;16191;49.548;8.658;2024-03-06T09:44:34;10.27;;;6.60;;
29120;SDS011;16191;49.548;8.658;2024-03-06T09:47:01;9.88;;;6.38;;
29120;SDS011;16191;49.548;8.658;2024-03-06T09:49:32;9.63;;;6.20;;
29120;SDS011;16191;49.548;8.658;2024-03-06T09:52:00;11.10;;;6.47;;
29120;SDS011;16191;49.548;8.658;2024-03-06T09:54:29;14.93;;;6.13;;
29120;SDS011;16191;49.548;8.658;2024-03-06T09:56:56;12.07;;;5.97;;
29120;SDS011;16191;49.548;8.658;2024-03-06T09:59:25;12.20;;;6.07;;
29120;SDS011;16191;49.548;8.658;2024-03-06T10:01:54;11.00;;;7.13;;
29120;SDS011;16191;49.548;8.658;2024-03-06T10:04:23;13.02;;;7.15;;
29120;SDS011;16191;49.548;8.658;2024-03-06T10:06:55;13.77;;;8.00;;
29120;SDS011;16191;49.548;8.658;2024-03-06T10:09:24;10.52;;;7.20;;
29120;SDS011;16191;49.548;8.658;2024-03-06T10:11:51;15.30;;;7.55;;
29120;SDS011;16191;49.548;8.658;2024-03-06T10:14:31;17.47;;;8.43;;
29120;SDS011;16191;49.548;8.658;2024-03-06T10:16:59;11.80;;;7.93;;
29120;SDS011;16191;49.548;8.658;2024-03-06T10:19:27;12.10;;;8.15;;
29120;SDS011;16191;49.548;8.658;2024-03-06T10:21:55;11.70;;;7.85;;
29120;SDS011;16191;49.548;8.658;2024-03-06T10:24:25;15.13;;;8.35;;
29120;SDS011;16191;49.548;8.658;2024-03-06T10:26:56;12.95;;;8.52;;
29120;SDS011;16191;49.548;8.658;2024-03-06T10:29:27;11.60;;;7.95;;
29120;SDS011;16191;49.548;8.658;2024-03-06T10:31:56;17.45;;;9.05;;
29120;SDS011;16191;49.548;8.658;2024-03-06T10:34:24;13.50;;;8.88;;
29120;SDS011;16191;49.548;8.658;2024-03-06T10:36:56;11.15;;;8.07;;
29120;SDS011;16191;49.548;8.658;2024-03-06T10:39:24;13.77;;;9.32;;
29120;SDS011;16191;49.548;8.658;2024-03-06T10:41:52;11.88;;;8.02;;
29120;SDS011;16191;49.548;8.658;2024-03-06T10:44:22;14.15;;;9.45;;
29120;SDS011;16191;49.548;8.658;2024-03-06T10:46:55;15.73;;;9.05;;
29120;SDS011;16191;49.548;8.658;2024-03-06T10:49:27;14.68;;;9.07;;
29120;SDS011;16191;49.548;8.658;2024-03-06T10:52:03;14.85;;;9.27;;
29120;SDS011;16191;49.548;8.658;2024-03-06T10:54:34;13.40;;;9.52;;
29120;SDS011;16191;49.548;8.658;2024-03-06T10:57:03;14.93;;;10.15;;
29120;SDS011;16191;49.548;8.658;2024-03-06T10:59:30;11.93;;;9.18;;
29120;SDS011;16191;49.548;8.658;2024-03-06T11:02:00;11.32;;;8.77;;
29120;SDS011;16191;49.548;8.658;2024-03-06T11:04:28;15.75;;;9.57;;
29120;SDS011;16191;49.548;8.658;2024-03-06T11:07:01;15.20;;;9.43;;
29120;SDS011;16191;49.548;8.658;2024-03-06T11:09:33;14.80;;;9.52;;
29120;SDS011;16191;49.548;8.658;2024-03-06T11:12:09;17.40;;;9.93;;
29120;SDS011;16191;49.548;8.658;2024-03-06T11:14:37;18.92;;;11.13;;
29120;SDS011;16191;49.548;8.658;2024-03-06T11:23:01;13.55;;;9.95;;
29120;SDS011;16191;49.548;8.658;2024-03-06T11:28:21;16.02;;;10.95;;
29120;SDS011;16191;49.548;8.658;2024-03-06T11:31:01;14.18;;;10.27;;
29120;SDS011;16191;49.548;8.658;2024-03-06T11:33:36;14.18;;;9.93;;
29120;SDS011;16191;49.548;8.658;2024-03-06T11:38:57;14.00;;;10.02;;
29120;SDS011;16191;49.548;8.658;2024-03-06T11:41:30;13.60;;;10.23;;
29120;SDS011;16191;49.548;8.658;2024-03-06T11:44:12;18.48;;;11.20;;
29120;SDS011;16191;49.548;8.658;2024-03-06T11:46:42;17.67;;;10.82;;
29120;SDS011;16191;49.548;8.658;2024-03-06T11:49:21;16.63;;;11.20;;
29120;SDS011;16191;49.548;8.658;2024-03-06T11:51:51;16.90;;;9.82;;
29120;SDS011;16191;49.548;8.658;2024-03-06T11:54:18;15.35;;;10.43;;
29120;SDS011;16191;49.548;8.658;2024-03-06T11:56:50;15.55;;;10.50;;
29120;SDS011;16191;49.548;8.658;2024-03-06T11:59:20;13.88;;;10.35;;
29120;SDS011;16191;49.548;8.658;2024-03-06T12:01:48;16.92;;;10.70;;
29120;SDS011;16191;49.548;8.658;2024-03-06T12:04:15;15.65;;;11.00;;
29120;SDS011;16191;49.548;8.658;2024-03-06T12:06:41;17.50;;;10.63;;
29120;SDS011;16191;49.548;8.658;2024-03-06T12:09:08;16.02;;;10.57;;
29120;SDS011;16191;49.548;8.658;2024-03-06T12:11:37;17.80;;;11.05;;
29120;SDS011;16191;49.548;8.658;2024-03-06T12:14:05;19.85;;;11.40;;
29120;SDS011;16191;49.548;8.658;2024-03-06T12:16:32;18.75;;;10.57;;
29120;SDS011;16191;49.548;8.658;2024-03-06T12:18:59;15.38;;;11.00;;
29120;SDS011;16191;49.548;8.658;2024-03-06T12:21:32;16.85;;;11.27;;
29120;SDS011;16191;49.548;8.658;2024-03-06T12:24:10;17.48;;;11.10;;
29120;SDS011;16191;49.548;8.658;2024-03-06T12:26:37;15.93;;;11.55;;
29120;SDS011;16191;49.548;8.658;2024-03-06T12:29:11;20.63;;;14.98;;
29120;SDS011;16191;49.548;8.658;2024-03-06T12:31:38;22.08;;;14.48;;
29120;SDS011;16191;49.548;8.658;2024-03-06T12:34:08;24.45;;;15.20;;
29120;SDS011;16191;49.548;8.658;2024-03-06T12:36:41;22.58;;;15.50;;
29120;SDS011;16191;49.548;8.658;2024-03-06T12:39:08;20.98;;;14.75;;
29120;SDS011;16191;49.548;8.658;2024-03-06T12:41:39;23.08;;;15.38;;
29120;SDS011;16191;49.548;8.658;2024-03-06T12:44:07;22.65;;;14.85;;
29120;SDS011;16191;49.548;8.658;2024-03-06T12:46:34;21.08;;;14.82;;
29120;SDS011;16191;49.548;8.658;2024-03-06T12:49:01;20.67;;;14.95;;
29120;SDS011;16191;49.548;8.658;2024-03-06T12:51:28;20.33;;;13.70;;
29120;SDS011;16191;49.548;8.658;2024-03-06T12:53:54;19.60;;;12.75;;
29120;SDS011;16191;49.548;8.658;2024-03-06T12:56:21;21.33;;;12.27;;
29120;SDS011;16191;49.548;8.658;2024-03-06T12:58:48;17.40;;;11.85;;
29120;SDS011;16191;49.548;8.658;2024-03-06T13:01:14;20.10;;;11.77;;
29120;SDS011;16191;49.548;8.658;2024-03-06T13:03:41;17.95;;;12.13;;
29120;SDS011;16191;49.548;8.658;2024-03-06T13:06:08;17.45;;;11.63;;
29120;SDS011;16191;49.548;8.658;2024-03-06T13:08:36;19.90;;;13.15;;
29120;SDS011;16191;49.548;8.658;2024-03-06T13:11:03;17.80;;;11.43;;
29120;SDS011;16191;49.548;8.658;2024-03-06T13:13:30;16.02;;;11.00;;
29120;SDS011;16191;49.548;8.658;2024-03-06T13:15:59;18.80;;;11.63;;
29120;SDS011;16191;49.548;8.658;2024-03-06T13:18:31;15.95;;;11.02;;
29120;SDS011;16191;49.548;8.658;2024-03-06T13:20:58;14.90;;;10.63;;
29120;SDS011;16191;49.548;8.658;2024-03-06T13:23:27;18.08;;;11.68;;
29120;SDS011;16191;49.548;8.658;2024-03-06T13:25:54;16.92;;;10.13;;
29120;SDS011;16191;49.548;8.658;2024-03-06T13:28:21;19.65;;;11.07;;
29120;SDS011;16191;49.548;8.658;2024-03-06T13:30:47;16.85;;;10.30;;
29120;SDS011;16191;49.548;8.658;2024-03-06T13:33:14;14.63;;;9.85;;
29120;SDS011;16191;49.548;8.658;2024-03-06T13:35:41;17.98;;;10.95;;
29120;SDS011;16191;49.548;8.658;2024-03-06T13:38:09;16.02;;;11.02;;
29120;SDS011;16191;49.548;8.658;2024-03-06T13:40:35;16.45;;;11.23;;
29120;SDS011;16191;49.548;8.658;2024-03-06T13:43:02;15.75;;;11.20;;
29120;SDS011;16191;49.548;8.658;2024-03-06T13:45:29;17.02;;;10.75;;
29120;SDS011;16191;49.548;8.658;2024-03-06T13:47:56;16.58;;;11.13;;
29120;SDS011;16191;49.548;8.658;2024-03-06T13:50:23;16.38;;;10.43;;
29120;SDS011;16191;49.548;8.658;2024-03-06T13:52:52;17.77;;;11.07;;
29120;SDS011;16191;49.548;8.658;2024-03-06T13:55:19;15.88;;;10.77;;
29120;SDS011;16191;49.548;8.658;2024-03-06T13:57:46;20.00;;;11.35;;
29120;SDS011;16191;49.548;8.658;2024-03-06T14:00:13;19.08;;;11.23;;
29120;SDS011;16191;49.548;8.658;2024-03-06T14:02:44;15.38;;;11.02;;
29120;SDS011;16191;49.548;8.658;2024-03-06T14:05:14;17.45;;;12.00;;
29120;SDS011;16191;49.548;8.658;2024-03-06T14:07:42;20.77;;;11.95;;
29120;SDS011;16191;49.548;8.658;2024-03-06T14:10:09;19.13;;;11.93;;
29120;SDS011;16191;49.548;8.658;2024-03-06T14:12:37;19.80;;;11.93;;
29120;SDS011;16191;49.548;8.658;2024-03-06T14:15:05;18.13;;;11.88;;
29120;SDS011;16191;49.548;8.658;2024-03-06T14:17:39;15.98;;;11.65;;
29120;SDS011;16191;49.548;8.658;2024-03-06T14:20:06;17.70;;;11.45;;
29120;SDS011;16191;49.548;8.658;2024-03-06T14:22:34;17.13;;;11.27;;
29120;SDS011;16191;49.548;8.658;2024-03-06T14:25:02;16.38;;;10.32;;
29120;SDS011;16191;49.548;8.658;2024-03-06T14:27:28;14.00;;;10.50;;
29120;SDS011;16191;49.548;8.658;2024-03-06T14:29:55;18.95;;;12.02;;
29120;SDS011;16191;49.548;8.658;2024-03-06T14:32:22;19.85;;;12.35;;
29120;SDS011;16191;49.548;8.658;2024-03-06T14:34:49;25.65;;;15.05;;
29120;SDS011;16191;49.548;8.658;2024-03-06T14:37:15;23.63;;;15.13;;
29120;SDS011;16191;49.548;8.658;2024-03-06T14:39:42;23.80;;;15.70;;
29120;SDS011;16191;49.548;8.658;2024-03-06T14:42:09;23.45;;;14.82;;
29120;SDS011;16191;49.548;8.658;2024-03-06T14:44:36;22.23;;;14.07;;
29120;SDS011;16191;49.548;8.658;2024-03-06T14:47:03;24.15;;;14.55;;
29120;SDS011;16191;49.548;8.658;2024-03-06T14:49:33;24.52;;;15.48;;
29120;SDS011;16191;49.548;8.658;2024-03-06T14:51:59;24.50;;;15.07;;
29120;SDS011;16191;49.548;8.658;2024-03-06T14:54:26;25.85;;;15.32;;
29120;SDS011;16191;49.548;8.658;2024-03-06T14:56:53;23.33;;;15.70;;
29120;SDS011;16191;49.548;8.658;2024-03-06T14:59:21;25.20;;;15.85;;
29120;SDS011;16191;49.548;8.658;2024-03-06T15:01:48;20.58;;;14.25;;